createdAt,value
2022-08-03T00:01:00.090Z,21.21
2022-08-03T00:03:00.489Z,21.17
2022-08-03T00:08:16.330Z,21.15
2022-08-03T00:10:16.459Z,21.18
2022-08-03T00:12:16.880Z,21.15
2022-08-03T00:14:16.767Z,21.12
2022-08-03T00:16:16.901Z,21.09
2022-08-03T00:18:17.133Z,21.06
2022-08-03T00:20:17.158Z,21.02
2022-08-03T00:22:17.528Z,21.03
2022-08-03T00:24:17.462Z,20.99
2022-08-03T00:26:17.595Z,20.96
2022-08-03T00:28:17.915Z,20.92
2022-08-03T00:30:17.880Z,20.90
2022-08-03T00:32:18.068Z,20.84
2022-08-03T00:34:18.204Z,20.78
2022-08-03T00:36:19.286Z,20.74
2022-08-03T00:38:18.381Z,20.72
2022-08-03T00:40:18.539Z,20.69
2022-08-03T00:42:18.851Z,20.70
2022-08-03T00:44:18.747Z,20.69
2022-08-03T00:46:21.654Z,20.65
2022-08-03T00:48:29.796Z,20.62
2022-08-03T00:50:20.153Z,20.63
2022-08-03T00:52:19.510Z,20.62
2022-08-03T00:54:19.426Z,20.63
2022-08-03T00:56:19.543Z,20.63
2022-08-03T00:58:19.667Z,20.58
2022-08-03T01:00:20.230Z,20.55
2022-08-03T01:02:20.008Z,20.50
2022-08-03T01:04:20.199Z,20.48
2022-08-03T01:06:20.207Z,20.44
2022-08-03T01:08:20.273Z,20.40
2022-08-03T01:10:20.527Z,20.40
2022-08-03T01:12:20.595Z,20.41
2022-08-03T01:14:20.679Z,20.39
2022-08-03T01:16:20.919Z,20.39
2022-08-03T01:18:22.025Z,20.36
2022-08-03T01:20:21.115Z,20.37
2022-08-03T01:22:21.209Z,20.34
2022-08-03T01:24:21.662Z,20.31
2022-08-03T01:26:21.560Z,20.29
2022-08-03T01:28:21.587Z,20.28
2022-08-03T01:30:22.218Z,20.26
2022-08-03T01:32:59.656Z,20.25
2022-08-03T01:34:22.992Z,20.24
2022-08-03T01:36:22.190Z,20.19
2022-08-03T01:38:22.278Z,20.16
2022-08-03T01:40:22.562Z,20.11
2022-08-03T01:42:22.526Z,20.09
2022-08-03T01:44:29.337Z,20.07
2022-08-03T01:46:23.808Z,20.06
2022-08-03T01:48:22.923Z,19.99
2022-08-03T01:50:23.094Z,19.99
2022-08-03T01:52:23.154Z,19.99
2022-08-03T01:54:23.418Z,19.92
2022-08-03T01:56:23.422Z,19.86
2022-08-03T01:58:23.634Z,19.82
2022-08-03T02:00:23.648Z,19.82
2022-08-03T02:02:33.411Z,19.79
2022-08-03T02:04:24.913Z,19.82
2022-08-03T02:07:00.790Z,19.81
2022-08-03T02:08:25.163Z,19.81
2022-08-03T02:10:35.311Z,19.79
2022-08-03T02:12:25.429Z,19.77
2022-08-03T02:14:24.577Z,19.73
2022-08-03T02:16:24.823Z,19.70
2022-08-03T02:18:24.913Z,19.70
2022-08-03T02:20:25.070Z,19.66
2022-08-03T02:22:25.191Z,19.62
2022-08-03T02:24:25.254Z,19.59
2022-08-03T02:26:25.425Z,19.52
2022-08-03T02:28:25.530Z,19.49
2022-08-03T02:30:25.606Z,19.45
2022-08-03T02:32:25.753Z,19.40
2022-08-03T02:34:25.882Z,19.36
2022-08-03T02:36:25.982Z,19.39
2022-08-03T02:38:26.122Z,19.40
2022-08-03T02:40:26.203Z,19.40
2022-08-03T02:42:26.358Z,19.40
2022-08-03T02:44:26.597Z,19.39
2022-08-03T02:46:26.661Z,19.37
2022-08-03T02:48:26.784Z,19.34
2022-08-03T02:50:27.031Z,19.34
2022-08-03T02:52:27.064Z,19.29
2022-08-03T02:54:27.261Z,19.26
2022-08-03T02:56:27.281Z,19.21
2022-08-03T02:58:27.461Z,19.21
2022-08-03T03:00:28.672Z,19.22
2022-08-03T03:02:27.663Z,19.18
2022-08-03T03:04:31.332Z,19.15
2022-08-03T03:06:29.295Z,19.12
2022-08-03T03:08:28.590Z,19.09
2022-08-03T03:10:28.242Z,19.04
2022-08-03T03:12:28.525Z,19.00
2022-08-03T03:14:33.533Z,18.96
2022-08-03T03:16:29.733Z,18.95
2022-08-03T03:18:28.773Z,18.95
2022-08-03T03:20:30.207Z,18.96
2022-08-03T03:22:29.093Z,18.93
2022-08-03T03:24:29.597Z,18.92
2022-08-03T03:26:29.457Z,18.90
2022-08-03T03:28:29.671Z,18.86
2022-08-03T03:30:29.573Z,18.78
2022-08-03T03:32:29.679Z,18.78
2022-08-03T03:34:29.828Z,18.80
2022-08-03T03:36:29.932Z,18.81
2022-08-03T03:38:30.078Z,18.78
2022-08-03T03:40:30.176Z,18.78
2022-08-03T03:42:30.342Z,18.78
2022-08-03T03:44:30.418Z,18.78
2022-08-03T03:46:30.572Z,18.80
2022-08-03T03:48:30.707Z,18.80
2022-08-03T03:50:30.857Z,18.78
2022-08-03T03:52:31.020Z,18.73
2022-08-03T03:54:31.080Z,18.66
2022-08-03T03:56:31.216Z,18.63
2022-08-03T03:58:31.372Z,18.65
2022-08-03T04:00:31.487Z,18.63
2022-08-03T04:02:31.596Z,18.65
2022-08-03T04:04:31.638Z,18.62
2022-08-03T04:06:31.786Z,18.59
2022-08-03T04:08:32.188Z,18.56
2022-08-03T04:10:31.981Z,18.55
2022-08-03T04:12:32.086Z,18.52
2022-08-03T04:14:32.282Z,18.50
2022-08-03T04:17:48.117Z,18.50
2022-08-03T04:19:48.200Z,18.53
2022-08-03T04:21:48.312Z,18.56
2022-08-03T04:23:48.401Z,18.53
2022-08-03T04:25:48.507Z,18.52
2022-08-03T04:28:08.045Z,18.49
2022-08-03T04:29:49.733Z,18.52
2022-08-03T04:31:48.860Z,18.55
2022-08-03T04:33:49.057Z,18.50
2022-08-03T04:35:58.440Z,18.56
2022-08-03T04:37:50.177Z,18.55
2022-08-03T04:39:49.319Z,18.56
2022-08-03T04:42:07.269Z,18.55
2022-08-03T04:43:50.608Z,18.55
2022-08-03T04:45:49.653Z,18.56
2022-08-03T04:47:49.808Z,18.58
2022-08-03T04:49:49.920Z,18.60
2022-08-03T04:51:50.054Z,18.62
2022-08-03T04:53:50.136Z,18.62
2022-08-03T04:55:50.225Z,18.62
2022-08-03T04:57:50.381Z,18.66
2022-08-03T04:59:50.461Z,18.66
2022-08-03T05:01:50.596Z,18.68
2022-08-03T05:03:50.732Z,18.66
2022-08-03T05:05:51.002Z,18.68
2022-08-03T05:07:51.071Z,18.73
2022-08-03T05:09:57.493Z,18.71
2022-08-03T05:11:52.240Z,18.73
2022-08-03T05:13:51.415Z,18.73
2022-08-03T05:15:51.534Z,18.75
2022-08-03T05:17:51.662Z,18.77
2022-08-03T05:19:51.803Z,18.80
2022-08-03T05:21:53.020Z,18.84
2022-08-03T05:23:52.070Z,18.86
2022-08-03T05:25:52.163Z,18.88
2022-08-03T05:27:52.395Z,18.92
2022-08-03T05:29:52.421Z,18.95
2022-08-03T05:31:52.557Z,18.98
2022-08-03T05:33:52.695Z,19.07
2022-08-03T05:36:02.362Z,19.11
2022-08-03T05:37:54.784Z,19.14
2022-08-03T05:39:53.101Z,19.15
2022-08-03T05:41:53.189Z,19.18
2022-08-03T05:43:53.335Z,19.22
2022-08-03T05:46:12.092Z,19.30
2022-08-03T05:47:54.674Z,19.33
2022-08-03T05:49:53.739Z,19.40
2022-08-03T05:51:59.989Z,19.47
2022-08-03T05:53:54.960Z,19.51
2022-08-03T05:55:56.975Z,19.55
2022-08-03T05:57:56.847Z,19.63
2022-08-03T05:59:58.191Z,19.70
2022-08-03T06:01:54.503Z,19.73
2022-08-03T06:03:54.556Z,19.79
2022-08-03T06:06:00.029Z,19.85
2022-08-03T06:07:55.846Z,19.88
2022-08-03T06:10:33.627Z,19.94
2022-08-03T06:11:56.122Z,20.00
2022-08-03T06:13:55.309Z,20.07
2022-08-03T06:15:55.375Z,20.10
2022-08-03T06:17:58.716Z,20.14
2022-08-03T06:19:56.656Z,20.31
2022-08-03T06:21:55.868Z,20.99
2022-08-03T06:23:55.915Z,22.36
2022-08-03T06:25:56.190Z,23.55
2022-08-03T06:27:56.218Z,24.50
2022-08-03T06:29:56.407Z,25.29
2022-08-03T06:31:56.494Z,26.05
2022-08-03T06:34:33.567Z,26.78
2022-08-03T06:35:57.799Z,27.37
2022-08-03T06:37:56.977Z,27.83
2022-08-03T06:39:57.046Z,28.14
2022-08-03T06:41:57.208Z,28.23
2022-08-03T06:44:03.201Z,28.10
2022-08-03T06:45:58.444Z,28.07
2022-08-03T06:47:58.701Z,28.25
2022-08-03T06:50:05.600Z,28.38
2022-08-03T06:52:06.041Z,28.20
2022-08-03T06:53:59.081Z,28.30
2022-08-03T06:55:58.126Z,28.37
2022-08-03T06:58:00.157Z,28.60
2022-08-03T07:00:07.393Z,28.79
2022-08-03T07:01:59.548Z,28.63
2022-08-03T07:03:58.701Z,28.69
2022-08-03T07:05:58.812Z,28.67
2022-08-03T07:07:59.027Z,28.67
2022-08-03T07:09:59.120Z,28.74
2022-08-03T07:11:59.280Z,28.74
2022-08-03T07:13:59.445Z,28.74
2022-08-03T07:15:59.597Z,28.79
2022-08-03T07:17:59.734Z,28.76
2022-08-03T07:19:59.870Z,28.91
2022-08-03T07:22:02.048Z,28.75
2022-08-03T07:24:00.236Z,28.75
2022-08-03T07:26:00.319Z,28.82
2022-08-03T07:28:00.511Z,29.02
2022-08-03T07:30:00.618Z,29.08
2022-08-03T07:32:00.759Z,29.12
2022-08-03T07:34:00.952Z,29.56
2022-08-03T07:36:01.088Z,29.88
2022-08-03T07:38:01.203Z,29.75
2022-08-03T07:40:01.339Z,30.02
2022-08-03T07:42:01.491Z,30.24
2022-08-03T07:44:01.603Z,30.37
2022-08-03T07:46:01.739Z,30.54
2022-08-03T07:48:01.876Z,30.80
2022-08-03T07:50:02.014Z,30.99
2022-08-03T07:52:02.099Z,31.42
2022-08-03T07:54:02.283Z,31.93
2022-08-03T07:56:02.391Z,32.63
2022-08-03T07:58:02.562Z,33.04
2022-08-03T08:00:03.095Z,33.23
2022-08-03T08:02:02.814Z,33.39
2022-08-03T08:04:03.017Z,33.50
2022-08-03T08:06:03.198Z,33.30
2022-08-03T08:08:03.263Z,33.27
2022-08-03T08:10:03.620Z,33.27
2022-08-03T08:12:03.534Z,33.50
2022-08-03T08:14:04.722Z,33.73
2022-08-03T08:16:03.819Z,33.98
2022-08-03T08:18:03.961Z,34.27
2022-08-03T08:20:04.165Z,34.40
2022-08-03T08:22:04.252Z,34.71
2022-08-03T08:24:07.233Z,35.36
2022-08-03T08:26:05.574Z,35.61
2022-08-03T08:28:29.647Z,35.64
2022-08-03T08:30:11.478Z,35.52
2022-08-03T08:32:05.929Z,35.64
2022-08-03T08:34:05.190Z,36.05
2022-08-03T08:36:05.169Z,36.07
2022-08-03T08:38:05.729Z,35.97
2022-08-03T08:40:05.458Z,36.08
2022-08-03T08:42:05.593Z,36.21
2022-08-03T08:44:05.724Z,36.31
2022-08-03T08:46:05.907Z,36.70
2022-08-03T08:48:08.356Z,37.11
2022-08-03T08:50:10.048Z,37.32
2022-08-03T08:52:25.407Z,37.64
2022-08-03T08:54:07.457Z,37.75
2022-08-03T08:56:06.614Z,37.90
2022-08-03T08:58:06.737Z,37.71
2022-08-03T09:00:06.853Z,37.83
2022-08-03T09:02:07.154Z,37.68
2022-08-03T09:04:07.167Z,38.01
2022-08-03T09:06:07.301Z,38.49
2022-08-03T09:08:07.515Z,38.61
2022-08-03T09:10:12.987Z,38.24
2022-08-03T09:12:35.359Z,38.48
2022-08-03T09:14:08.878Z,37.67
2022-08-03T09:16:07.996Z,37.86
2022-08-03T09:18:08.122Z,38.24
2022-08-03T09:20:08.237Z,38.34
2022-08-03T09:22:08.425Z,38.61
2022-08-03T09:24:20.631Z,38.79
2022-08-03T09:26:09.690Z,39.31
2022-08-03T09:28:09.138Z,39.21
2022-08-03T09:30:33.820Z,39.19
2022-08-03T09:32:10.160Z,39.58
2022-08-03T09:34:09.287Z,39.93
2022-08-03T09:36:09.391Z,39.90
2022-08-03T09:38:13.830Z,39.56
2022-08-03T09:40:09.702Z,39.62
2022-08-03T09:42:09.891Z,39.92
2022-08-03T09:44:24.128Z,39.81
2022-08-03T09:46:11.080Z,39.22
2022-08-03T09:48:10.239Z,38.97
2022-08-03T09:50:10.785Z,38.48
2022-08-03T09:52:38.310Z,38.68
2022-08-03T09:54:18.887Z,39.21
2022-08-03T09:56:36.146Z,39.72
2022-08-03T09:58:11.945Z,40.06
2022-08-03T10:00:11.055Z,40.27
2022-08-03T10:02:11.196Z,40.15
2022-08-03T10:04:12.021Z,40.12
2022-08-03T10:06:11.491Z,39.94
2022-08-03T10:08:11.679Z,40.09
2022-08-03T10:10:30.013Z,40.08
2022-08-03T10:12:12.877Z,39.96
2022-08-03T10:14:12.035Z,40.24
2022-08-03T10:16:23.555Z,40.31
2022-08-03T10:18:13.278Z,40.40
2022-08-03T10:20:12.463Z,40.26
2022-08-03T10:22:12.585Z,40.53
2022-08-03T10:24:12.895Z,40.75
2022-08-03T10:26:12.778Z,40.75
2022-08-03T10:28:12.943Z,40.72
2022-08-03T10:30:13.177Z,40.34
2022-08-03T10:32:13.194Z,40.53
2022-08-03T10:34:13.306Z,40.72
2022-08-03T10:36:13.463Z,40.62
2022-08-03T10:38:13.612Z,40.15
2022-08-03T10:40:23.188Z,40.51
2022-08-03T10:42:14.987Z,40.58
2022-08-03T10:44:13.992Z,40.18
2022-08-03T10:46:14.172Z,40.20
2022-08-03T10:48:14.319Z,39.96
2022-08-03T10:50:14.444Z,40.00
2022-08-03T10:52:31.920Z,40.06
2022-08-03T10:54:15.683Z,40.31
2022-08-03T10:56:14.816Z,40.61
2022-08-03T10:58:30.265Z,40.58
2022-08-03T11:00:16.150Z,40.77
2022-08-03T11:02:15.205Z,40.46
2022-08-03T11:04:17.096Z,40.35
2022-08-03T11:06:15.643Z,40.14
2022-08-03T11:08:15.629Z,39.93
2022-08-03T11:10:15.791Z,40.12
2022-08-03T11:12:15.874Z,40.35
2022-08-03T11:14:16.114Z,40.28
2022-08-03T11:16:21.235Z,39.81
2022-08-03T11:18:17.273Z,39.67
2022-08-03T11:20:16.392Z,39.19
2022-08-03T11:22:16.572Z,39.72
2022-08-03T11:24:16.712Z,39.85
2022-08-03T11:26:16.876Z,39.43
2022-08-03T11:28:17.021Z,39.18
2022-08-03T11:30:17.214Z,39.31
2022-08-03T11:32:19.556Z,39.46
2022-08-03T11:34:17.491Z,39.97
2022-08-03T11:36:32.279Z,40.00
2022-08-03T11:38:18.770Z,39.21
2022-08-03T11:40:17.801Z,39.07
2022-08-03T11:42:17.953Z,39.38
2022-08-03T11:44:18.136Z,39.53
2022-08-03T11:46:18.221Z,39.53
2022-08-03T11:48:19.375Z,39.85
2022-08-03T11:50:18.581Z,40.06
2022-08-03T11:52:18.628Z,40.21
2022-08-03T11:54:18.887Z,40.33
2022-08-03T11:56:18.906Z,40.51
2022-08-03T11:59:10.922Z,40.47
2022-08-03T12:00:20.265Z,40.15
2022-08-03T12:02:19.382Z,39.97
2022-08-03T12:04:19.597Z,39.89
2022-08-03T12:06:19.746Z,39.74
2022-08-03T12:08:19.753Z,39.81
2022-08-03T12:10:19.930Z,39.81
2022-08-03T12:12:20.082Z,39.70
2022-08-03T12:14:48.980Z,39.36
2022-08-03T12:16:21.341Z,39.03
2022-08-03T12:18:20.539Z,39.25
2022-08-03T12:20:20.653Z,39.53
2022-08-03T12:22:21.781Z,39.14
2022-08-03T12:24:20.939Z,38.92
2022-08-03T12:26:21.097Z,38.58
2022-08-03T12:28:36.479Z,38.48
2022-08-03T12:30:22.314Z,38.38
2022-08-03T12:32:21.495Z,38.38
2022-08-03T12:34:21.635Z,38.55
2022-08-03T12:36:21.727Z,38.28
2022-08-03T12:38:21.962Z,37.90
2022-08-03T12:40:25.158Z,38.14
2022-08-03T12:42:23.154Z,38.24
2022-08-03T12:44:22.495Z,38.50
2022-08-03T12:46:22.446Z,38.84
2022-08-03T12:48:23.487Z,39.11
2022-08-03T12:50:23.708Z,39.04
2022-08-03T12:52:22.805Z,39.06
2022-08-03T12:54:24.595Z,39.14
2022-08-03T12:56:23.056Z,38.76
2022-08-03T12:58:23.210Z,38.49
2022-08-03T13:00:29.542Z,38.38
2022-08-03T13:02:24.665Z,38.45
2022-08-03T13:04:23.626Z,38.58
2022-08-03T13:06:23.776Z,38.60
2022-08-03T13:08:23.931Z,38.61
2022-08-03T13:10:24.032Z,38.52
2022-08-03T13:12:24.167Z,38.15
2022-08-03T13:14:24.299Z,38.19
2022-08-03T13:16:24.522Z,38.12
2022-08-03T13:18:24.611Z,37.59
2022-08-03T13:20:24.667Z,37.17
2022-08-03T13:22:24.821Z,37.01
2022-08-03T13:24:24.930Z,36.96
2022-08-03T13:26:25.027Z,36.86
2022-08-03T13:28:25.240Z,36.58
2022-08-03T13:30:30.434Z,36.42
2022-08-03T13:32:26.452Z,36.25
2022-08-03T13:34:25.613Z,35.93
2022-08-03T13:36:25.653Z,36.17
2022-08-03T13:38:26.997Z,36.33
2022-08-03T13:40:30.131Z,36.30
2022-08-03T13:42:26.023Z,36.31
2022-08-03T13:44:29.409Z,36.25
2022-08-03T13:46:26.435Z,36.39
2022-08-03T13:48:35.860Z,36.23
2022-08-03T13:50:27.578Z,36.01
2022-08-03T13:52:26.690Z,36.20
2022-08-03T13:54:26.830Z,36.18
2022-08-03T13:56:26.959Z,36.37
2022-08-03T13:58:27.046Z,36.05
2022-08-03T14:00:29.591Z,36.00
2022-08-03T14:02:27.315Z,35.86
2022-08-03T14:04:27.457Z,35.92
2022-08-03T14:06:27.519Z,36.16
2022-08-03T14:08:27.620Z,36.40
2022-08-03T14:10:27.854Z,36.52
2022-08-03T14:12:27.876Z,36.58
2022-08-03T14:14:28.627Z,36.57
2022-08-03T14:16:28.131Z,36.37
2022-08-03T14:18:33.474Z,36.21
2022-08-03T14:20:37.786Z,36.05
2022-08-03T14:22:29.527Z,35.98
2022-08-03T14:24:28.659Z,36.01
2022-08-03T14:26:28.696Z,36.00
2022-08-03T14:28:28.889Z,35.86
2022-08-03T14:30:29.002Z,35.66
2022-08-03T14:32:29.091Z,35.51
2022-08-03T14:34:29.248Z,35.45
2022-08-03T14:36:29.339Z,35.53
2022-08-03T14:38:29.451Z,35.68
2022-08-03T14:40:29.520Z,35.82
2022-08-03T14:42:29.705Z,35.93
2022-08-03T14:44:29.797Z,36.07
2022-08-03T14:46:30.090Z,36.27
2022-08-03T14:50:30.652Z,36.43
2022-08-03T14:50:42.848Z,36.27
2022-08-03T14:52:31.253Z,36.16
2022-08-03T14:54:30.514Z,36.16
2022-08-03T14:56:31.531Z,35.90
2022-08-03T14:58:30.700Z,35.70
2022-08-03T15:00:30.750Z,35.71
2022-08-03T15:02:30.947Z,35.80
2022-08-03T15:04:30.965Z,35.67
2022-08-03T15:06:31.221Z,35.63
2022-08-03T15:08:31.187Z,35.42
2022-08-03T15:10:43.775Z,35.52
2022-08-03T15:12:32.469Z,35.63
2022-08-03T15:14:33.423Z,35.67
2022-08-03T15:16:31.642Z,35.51
2022-08-03T15:18:31.783Z,35.37
2022-08-03T15:20:43.205Z,35.31
2022-08-03T15:22:34.570Z,35.33
2022-08-03T15:24:32.128Z,35.27
2022-08-03T15:26:36.618Z,35.27
2022-08-03T15:28:33.399Z,35.23
2022-08-03T15:30:32.473Z,35.19
2022-08-03T15:32:32.589Z,35.12
2022-08-03T15:34:32.946Z,35.19
2022-08-03T15:36:32.819Z,35.22
2022-08-03T15:38:32.937Z,35.23
2022-08-03T15:40:33.017Z,35.15
2022-08-03T15:42:33.469Z,35.10
2022-08-03T15:44:33.307Z,35.18
2022-08-03T15:46:33.522Z,35.33
2022-08-03T15:48:33.554Z,35.41
2022-08-03T15:50:33.647Z,35.48
2022-08-03T15:52:33.762Z,35.51
2022-08-03T15:54:34.031Z,35.53
2022-08-03T15:56:33.935Z,35.58
2022-08-03T15:59:03.990Z,35.56
2022-08-03T16:00:35.317Z,35.46
2022-08-03T16:02:34.328Z,35.34
2022-08-03T16:04:34.436Z,35.27
2022-08-03T16:06:36.045Z,35.17
2022-08-03T16:08:34.699Z,35.10
2022-08-03T16:10:34.808Z,35.02
2022-08-03T16:12:35.018Z,34.93
2022-08-03T16:14:46.861Z,34.88
2022-08-03T16:16:36.168Z,34.74
2022-08-03T16:18:35.303Z,34.70
2022-08-03T16:20:35.595Z,34.77
2022-08-03T16:22:35.483Z,34.77
2022-08-03T16:24:35.642Z,34.81
2022-08-03T16:26:35.854Z,34.83
2022-08-03T16:28:36.086Z,34.86
2022-08-03T16:30:36.035Z,34.80
2022-08-03T16:32:36.230Z,34.75
2022-08-03T16:34:36.334Z,34.75
2022-08-03T16:36:36.354Z,34.81
2022-08-03T16:38:36.536Z,34.73
2022-08-03T16:40:36.614Z,34.71
2022-08-03T16:42:36.686Z,34.67
2022-08-03T16:44:36.914Z,34.70
2022-08-03T16:46:36.997Z,34.67
2022-08-03T16:48:37.080Z,34.60
2022-08-03T16:50:37.280Z,34.58
2022-08-03T16:52:37.339Z,34.58
2022-08-03T16:54:37.451Z,34.57
2022-08-03T16:56:37.510Z,34.57
2022-08-03T16:58:42.386Z,34.52
2022-08-03T17:00:41.564Z,34.55
2022-08-03T17:02:37.915Z,34.54
2022-08-03T17:04:40.187Z,34.54
2022-08-03T17:06:38.085Z,34.47
2022-08-03T17:08:40.422Z,34.43
2022-08-03T17:10:38.325Z,34.38
2022-08-03T17:12:38.494Z,34.25
2022-08-03T17:14:38.608Z,34.21
2022-08-03T17:16:38.693Z,34.14
2022-08-03T17:18:49.503Z,34.08
2022-08-03T17:20:39.983Z,34.10
2022-08-03T17:22:39.095Z,34.06
2022-08-03T17:24:41.468Z,34.02
2022-08-03T17:26:39.367Z,34.01
2022-08-03T17:28:49.513Z,33.89
2022-08-03T17:30:40.679Z,33.87
2022-08-03T17:32:42.757Z,33.86
2022-08-03T17:34:41.080Z,33.80
2022-08-03T17:37:03.323Z,33.79
2022-08-03T17:38:41.134Z,33.71
2022-08-03T17:40:43.089Z,33.61
2022-08-03T17:42:41.407Z,33.42
2022-08-03T17:44:46.390Z,33.31
2022-08-03T17:46:41.623Z,33.24
2022-08-03T17:48:41.525Z,33.19
2022-08-03T17:50:40.799Z,33.11
2022-08-03T17:52:41.151Z,33.02
2022-08-03T17:55:50.502Z,32.90
2022-08-03T17:56:46.249Z,32.74
2022-08-03T17:58:41.620Z,32.59
2022-08-03T18:00:42.810Z,32.43
2022-08-03T18:02:47.758Z,32.26
2022-08-03T18:04:42.657Z,32.11
2022-08-03T18:06:55.586Z,31.96
2022-08-03T18:08:42.953Z,31.87
2022-08-03T18:10:49.795Z,31.78
2022-08-03T18:12:43.489Z,31.70
2022-08-03T18:14:42.329Z,31.65
2022-08-03T18:16:43.625Z,31.55
2022-08-03T18:18:43.045Z,31.46
2022-08-03T18:20:45.506Z,31.39
2022-08-03T18:22:42.861Z,31.33
2022-08-03T18:24:42.950Z,31.25
2022-08-03T18:26:43.039Z,31.17
2022-08-03T18:28:44.175Z,31.10
2022-08-03T18:30:54.712Z,30.99
2022-08-03T18:32:44.405Z,30.88
2022-08-03T18:34:53.474Z,30.78
2022-08-03T18:36:44.669Z,30.68
2022-08-03T18:38:43.819Z,30.57
2022-08-03T18:40:48.460Z,30.50
2022-08-03T18:42:51.068Z,30.46
2022-08-03T18:44:54.095Z,30.43
2022-08-03T18:46:45.366Z,30.40
2022-08-03T18:48:46.069Z,30.37
2022-08-03T18:50:49.648Z,30.31
2022-08-03T18:52:53.001Z,30.24
2022-08-03T18:55:01.182Z,30.19
2022-08-03T18:56:46.018Z,30.12
2022-08-03T18:58:45.101Z,30.03
2022-08-03T19:00:54.190Z,29.98
2022-08-03T19:02:48.954Z,29.91
2022-08-03T19:04:45.511Z,29.86
2022-08-03T19:06:45.668Z,29.84
2022-08-03T19:08:45.724Z,29.81
2022-08-03T19:10:57.539Z,29.79
2022-08-03T19:12:47.040Z,29.75
2022-08-03T19:14:46.106Z,29.68
2022-08-03T19:16:46.262Z,29.61
2022-08-03T19:18:46.383Z,29.50
2022-08-03T19:20:46.783Z,29.39
2022-08-03T19:22:46.604Z,29.29
2022-08-03T19:24:46.783Z,29.22
2022-08-03T19:26:48.645Z,29.13
2022-08-03T19:28:48.147Z,29.01
2022-08-03T19:30:53.716Z,28.93
2022-08-03T19:32:48.479Z,28.85
2022-08-03T19:34:47.451Z,28.82
2022-08-03T19:36:47.547Z,28.78
2022-08-03T19:38:47.706Z,28.75
2022-08-03T19:40:51.092Z,28.75
2022-08-03T19:42:48.189Z,28.72
2022-08-03T19:44:48.098Z,28.70
2022-08-03T19:46:48.268Z,28.64
2022-08-03T19:48:48.597Z,28.64
2022-08-03T19:50:48.551Z,28.66
2022-08-03T19:52:48.832Z,28.67
2022-08-03T19:54:53.163Z,28.69
2022-08-03T19:56:49.947Z,28.69
2022-08-03T19:58:53.273Z,28.67
2022-08-03T20:00:49.172Z,28.64
2022-08-03T20:02:50.894Z,28.63
2022-08-03T20:04:49.454Z,28.60
2022-08-03T20:06:49.766Z,28.56
2022-08-03T20:10:51.384Z,28.47
2022-08-03T20:12:49.877Z,28.41
2022-08-03T20:14:49.942Z,28.39
2022-08-03T20:16:50.060Z,28.37
2022-08-03T20:18:50.239Z,28.33
2022-08-03T20:20:50.373Z,28.35
2022-08-03T20:22:50.558Z,28.33
2022-08-03T20:24:53.189Z,28.35
2022-08-03T20:26:52.513Z,28.35
2022-08-03T20:28:51.242Z,28.35
2022-08-03T20:30:50.948Z,28.37
2022-08-03T20:32:51.082Z,28.38
2022-08-03T20:34:51.258Z,28.39
2022-08-03T20:36:51.330Z,28.39
2022-08-03T20:38:53.138Z,28.33
2022-08-03T20:40:51.548Z,28.29
2022-08-03T20:42:52.104Z,28.27
2022-08-03T20:45:05.207Z,28.20
2022-08-03T20:47:00.207Z,28.14
2022-08-03T20:48:53.112Z,28.07
2022-08-03T20:50:52.242Z,28.00
2022-08-03T20:52:54.170Z,27.98
2022-08-03T20:54:52.537Z,27.90
2022-08-03T20:56:52.918Z,27.85
2022-08-03T20:58:52.791Z,27.78
2022-08-03T21:00:52.947Z,27.75
2022-08-03T21:02:53.047Z,27.68
2022-08-03T21:04:53.270Z,27.60
2022-08-03T21:06:53.684Z,27.54
2022-08-03T21:08:53.427Z,27.49
2022-08-03T21:10:53.761Z,27.42
2022-08-03T21:12:53.694Z,27.37
2022-08-03T21:13:03.563Z,28.51
2022-08-03T21:14:53.838Z,27.32
2022-08-03T21:16:53.928Z,27.27
2022-08-03T21:18:54.015Z,27.26
2022-08-03T21:20:54.603Z,27.21
2022-08-03T21:22:54.375Z,27.20
2022-08-03T21:24:54.528Z,27.14
2022-08-03T21:26:54.820Z,27.10
2022-08-03T21:28:54.752Z,27.07
2022-08-03T21:30:54.874Z,27.05
2022-08-03T21:32:55.032Z,26.99
2022-08-03T21:34:55.134Z,26.97
2022-08-03T21:36:55.322Z,26.95
2022-08-03T21:38:56.333Z,26.92
2022-08-03T21:40:55.556Z,26.88
2022-08-03T21:42:55.668Z,26.88
2022-08-03T21:44:55.829Z,26.88
2022-08-03T21:46:55.970Z,26.84
2022-08-03T21:48:56.701Z,26.84
2022-08-03T21:50:57.251Z,26.83
2022-08-03T21:52:56.337Z,26.83
2022-08-03T21:54:56.451Z,26.78
2022-08-03T21:56:56.641Z,26.75
2022-08-03T21:58:56.739Z,26.70
2022-08-03T22:00:56.892Z,26.60
2022-08-03T22:02:57.143Z,26.53
2022-08-03T22:04:57.523Z,26.44
2022-08-03T22:06:57.302Z,26.36
2022-08-03T22:08:57.730Z,26.29
2022-08-03T22:10:57.564Z,26.21
2022-08-03T22:12:57.685Z,26.09
2022-08-03T22:15:01.346Z,25.99
2022-08-03T22:16:57.904Z,25.90
2022-08-03T22:18:58.036Z,25.80
2022-08-03T22:20:58.229Z,25.73
2022-08-03T22:22:58.314Z,25.63
2022-08-03T22:24:58.427Z,25.54
2022-08-03T22:26:58.575Z,25.51
2022-08-03T22:28:58.670Z,25.48
2022-08-03T22:30:58.766Z,25.47
2022-08-03T22:32:58.913Z,25.44
2022-08-03T22:34:59.095Z,25.40
2022-08-03T22:37:00.445Z,25.33
2022-08-03T22:38:59.387Z,25.32
2022-08-03T22:40:59.435Z,25.32
2022-08-03T22:42:59.621Z,25.33
2022-08-03T22:44:59.743Z,25.36
2022-08-03T22:47:00.175Z,25.40
2022-08-03T22:48:59.998Z,25.41
2022-08-03T22:51:00.451Z,25.38
2022-08-03T22:53:00.222Z,25.32
2022-08-03T22:55:00.379Z,25.25
2022-08-03T22:57:00.486Z,25.13
2022-08-03T22:59:00.668Z,25.03
2022-08-03T23:01:01.909Z,24.93
2022-08-03T23:03:00.944Z,24.86
2022-08-03T23:05:01.076Z,24.76
2022-08-03T23:07:01.076Z,24.66
2022-08-03T23:09:01.320Z,24.61
2022-08-03T23:11:01.414Z,24.54
2022-08-03T23:13:01.533Z,24.48
2022-08-03T23:15:01.785Z,24.43
2022-08-03T23:17:01.818Z,24.43
2022-08-03T23:19:16.347Z,24.40
2022-08-03T23:21:10.993Z,24.39
2022-08-03T23:23:03.150Z,24.36
2022-08-03T23:25:02.325Z,24.33
2022-08-03T23:27:02.884Z,24.29
2022-08-03T23:29:02.698Z,24.21
2022-08-03T23:31:02.727Z,24.16
2022-08-03T23:33:03.253Z,24.11
2022-08-03T23:35:02.940Z,24.06
2022-08-03T23:37:03.433Z,24.02
2022-08-03T23:39:03.309Z,23.99
2022-08-03T23:41:03.328Z,23.96
2022-08-03T23:43:03.875Z,23.95
2022-08-03T23:45:05.821Z,23.91
2022-08-03T23:47:03.729Z,23.84
2022-08-03T23:49:04.199Z,23.83
2022-08-03T23:51:04.078Z,23.81
2022-08-03T23:53:04.192Z,23.78
2022-08-03T23:55:04.266Z,23.76
2022-08-03T23:57:04.758Z,23.77
2022-08-03T23:59:04.583Z,23.74
